This is the latest recevied weather packets stored in our database for station/object W5ITZ. If no packets are shown the sender has not sent any weather packets the latest 10 day(s).
| Time | Temp. | Humidity | Pressure | Rain* | Wind** | Luminosity | Snow |
|---|---|---|---|---|---|---|---|
| 1788119994 | 35.56° C | 46% | 1014.4 hPa | 0 mm | - | 874 W/m² | - |
| 1788119690 | 35.56° C | 47% | 1014.5 hPa | 0 mm | - | 884 W/m² | - |
| 1788119388 | 36.11° C | 45% | 1014.4 hPa | 0 mm | - | 888 W/m² | - |
| 1788119087 | 36.11° C | 46% | 1014.5 hPa | 0 mm | - | 894 W/m² | - |
| 1788118782 | 36.11° C | 45% | 1014.7 hPa | 0 mm | - | 907 W/m² | - |
| 1788118481 | 36.11° C | 44% | 1014.7 hPa | 0 mm | - | 914 W/m² | - |
| 1788118176 | 35.56° C | 46% | 1014.7 hPa | 0 mm | - | 918 W/m² | - |
| 1788117871 | 36.11° C | 46% | 1014.6 hPa | 0 mm | - | 923 W/m² | - |
| 1788117566 | 36.11° C | 47% | 1014.8 hPa | 0 mm | - | 935 W/m² | - |
| 1788117261 | 36.11° C | 46% | 1014.9 hPa | 0 mm | - | 915 W/m² | - |
| 1788116957 | 35° C | 48% | 1014.6 hPa | 0 mm | - | 969 W/m² | - |
| 1788116652 | 35.56° C | 47% | 1015.2 hPa | 0 mm | - | 870 W/m² | - |
| 1788116351 | 35.56° C | 46% | 1015 hPa | 0 mm | - | 1021 W/m² | - |
| 1788116046 | 35° C | 46% | 1015.4 hPa | 0 mm | - | 1001 W/m² | - |
| 1788115742 | 35.56° C | 45% | 1015.4 hPa | 0 mm | - | 1009 W/m² | - |
| 1788115440 | 35.56° C | 44% | 1015.5 hPa | 0 mm | - | 664 W/m² | - |
| 1788115140 | 35.56° C | 46% | 1015.4 hPa | 0 mm | - | 981 W/m² | - |
| 1788114835 | 35.56° C | 45% | 1015.5 hPa | 0 mm | - | 1001 W/m² | - |
| 1788114530 | 35.56° C | 46% | 1015.4 hPa | 0 mm | - | 991 W/m² | - |
| 1788114226 | 35.56° C | 46% | 1015.7 hPa | 0 mm | - | 1008 W/m² | - |
| 1788113922 | 36.11° C | 47% | 1015.7 hPa | 0 mm | - | 1038 W/m² | - |
| 1788113617 | 35.56° C | 46% | 1015.8 hPa | 0 mm | - | 1017 W/m² | - |
| 1788113317 | 35° C | 48% | 1015.9 hPa | 0 mm | - | 1083 W/m² | - |
| 1788113011 | 35° C | 47% | 1016 hPa | 0 mm | - | 1107 W/m² | - |
| 1788112711 | 33.89° C | 55% | 1015.9 hPa | 0 mm | - | 677 W/m² | - |
* Rain latest hour (hover to see other rain measurements)
** Current wind speed in m/s (hover to see current wind gust speed)